Time;durP1;ratioP1;P1;durP2;ratioP2;P2;SDS_P1;SDS_P2;PMS_P1;PMS_P2;Temp;Humidity;BMP_temperature;BMP_pressure;BME280_temperature;BME280_humidity;BME280_pressure;Samples;Min_cycle;Max_cycle;Signal;HPM_P1;HPM_P2
2021/11/24 00:00:03;;;;;;;0.70;0.70;;;;;;;;;;5016310;28;20522;-79
2021/11/24 00:02:29;;;;;;;2.05;1.08;;;;;;;;;;5020760;28;20407;-79
2021/11/24 00:04:55;;;;;;;1.20;1.10;;;;;;;;;;5022064;28;20203;-80
2021/11/24 00:07:21;;;;;;;1.30;1.13;;;;;;;;;;5020561;28;20413;-80
2021/11/24 00:09:47;;;;;;;0.90;0.90;;;;;;;;;;5020100;28;20504;-80
2021/11/24 00:12:12;;;;;;;1.27;1.17;;;;;;;;;;5017585;28;20430;-80
2021/11/24 00:14:38;;;;;;;0.70;0.70;;;;;;;;;;5001887;28;20453;-79
2021/11/24 00:17:05;;;;;;;0.68;0.68;;;;;;;;;;5023169;28;20465;-80
2021/11/24 00:19:31;;;;;;;2.00;1.90;;;;;;;;;;5004125;28;20217;-78
2021/11/24 00:21:58;;;;;;;1.67;1.33;;;;;;;;;;5020348;28;20445;-79
2021/11/24 00:24:24;;;;;;;1.27;1.17;;;;;;;;;;5019511;28;20468;-78
2021/11/24 00:26:49;;;;;;;1.45;1.35;;;;;;;;;;5018854;28;20195;-79
2021/11/24 00:29:15;;;;;;;1.07;1.00;;;;;;;;;;5019604;28;20213;-78
2021/11/24 00:31:42;;;;;;;1.42;1.25;;;;;;;;;;5019451;28;20513;-79
2021/11/24 00:34:08;;;;;;;2.17;1.73;;;;;;;;;;5019200;28;20270;-79
2021/11/24 00:36:34;;;;;;;0.80;0.80;;;;;;;;;;5017541;28;20214;-78
2021/11/24 00:39:00;;;;;;;0.65;0.65;;;;;;;;;;5019433;28;20186;-78
2021/11/24 00:41:26;;;;;;;0.70;0.70;;;;;;;;;;5020350;28;20684;-78
2021/11/24 00:43:52;;;;;;;0.60;0.60;;;;;;;;;;4999729;28;20281;-79
2021/11/24 00:46:17;;;;;;;0.60;0.60;;;;;;;;;;5014511;28;20437;-79
2021/11/24 00:48:43;;;;;;;0.80;0.80;;;;;;;;;;5014847;28;20929;-79
2021/11/24 00:51:09;;;;;;;0.60;0.60;;;;;;;;;;5015156;28;20432;-79
2021/11/24 00:53:35;;;;;;;1.02;1.02;;;;;;;;;;5015676;28;20179;-78
2021/11/24 00:56:01;;;;;;;1.15;1.15;;;;;;;;;;5015134;28;20305;-80
2021/11/24 00:58:27;;;;;;;2.50;1.97;;;;;;;;;;5015701;28;20179;-80
2021/11/24 01:00:53;;;;;;;0.70;0.70;;;;;;;;;;5018536;28;20426;-79
2021/11/24 01:03:19;;;;;;;9.13;1.25;;;;;;;;;;5019679;28;20452;-79
2021/11/24 01:05:46;;;;;;;1.83;1.50;;;;;;;;;;5019163;28;20195;-80
2021/11/24 01:08:16;;;;;;;0.80;0.80;;;;;;;;;;5019742;28;20433;-79
2021/11/24 01:10:42;;;;;;;0.60;0.60;;;;;;;;;;5019501;28;20182;-79
2021/11/24 01:13:08;;;;;;;0.80;0.80;;;;;;;;;;5018057;28;20190;-79
2021/11/24 01:15:34;;;;;;;0.93;0.93;;;;;;;;;;5019259;28;20249;-79
2021/11/24 01:18:00;;;;;;;0.70;0.70;;;;;;;;;;5018831;28;20237;-79
2021/11/24 01:20:26;;;;;;;1.65;1.55;;;;;;;;;;5018908;28;20583;-80
2021/11/24 01:22:52;;;;;;;1.57;1.57;;;;;;;;;;5018868;28;20183;-79
2021/11/24 01:25:18;;;;;;;0.60;0.60;;;;;;;;;;5017214;28;20454;-79
2021/11/24 01:27:44;;;;;;;1.13;1.03;;;;;;;;;;5017663;28;20528;-79
2021/11/24 01:30:11;;;;;;;1.67;0.88;;;;;;;;;;5017769;28;20417;-80
2021/11/24 01:32:38;;;;;;;0.70;0.70;;;;;;;;;;5018133;28;20229;-79
2021/11/24 01:35:05;;;;;;;1.35;1.25;;;;;;;;;;5000467;28;20202;-79
2021/11/24 01:37:32;;;;;;;1.42;1.35;;;;;;;;;;5017920;28;20189;-79
2021/11/24 01:39:58;;;;;;;2.08;1.45;;;;;;;;;;5023544;28;20182;-80
2021/11/24 01:42:24;;;;;;;3.33;1.77;;;;;;;;;;5023140;28;20249;-80
2021/11/24 01:44:50;;;;;;;0.70;0.70;;;;;;;;;;5020596;28;20545;-80
2021/11/24 01:47:16;;;;;;;1.53;1.47;;;;;;;;;;5020824;28;20205;-79
2021/11/24 01:49:42;;;;;;;2.07;1.47;;;;;;;;;;5020197;28;20481;-79
2021/11/24 01:52:08;;;;;;;0.60;0.60;;;;;;;;;;5020940;28;20422;-79
2021/11/24 01:54:34;;;;;;;0.68;0.68;;;;;;;;;;5020227;28;20282;-79
2021/11/24 01:57:01;;;;;;;1.75;1.65;;;;;;;;;;5020293;28;20183;-80
2021/11/24 01:59:27;;;;;;;1.17;1.15;;;;;;;;;;5020491;28;20179;-80
2021/11/24 02:01:54;;;;;;;2.05;1.85;;;;;;;;;;5020957;28;20604;-79
2021/11/24 02:04:21;;;;;;;1.27;1.10;;;;;;;;;;5003807;28;20195;-79
2021/11/24 02:06:47;;;;;;;2.25;1.17;;;;;;;;;;5019400;28;20187;-80
2021/11/24 02:09:13;;;;;;;0.60;0.60;;;;;;;;;;5027103;28;20260;-79
2021/11/24 02:11:40;;;;;;;1.08;1.08;;;;;;;;;;5019980;28;20210;-79
2021/11/24 02:14:07;;;;;;;0.70;0.70;;;;;;;;;;5020070;28;20197;-79
2021/11/24 02:16:39;;;;;;;1.00;1.00;;;;;;;;;;5021907;28;20202;-80
2021/11/24 02:19:05;;;;;;;1.23;1.23;;;;;;;;;;5027660;28;20586;-80
2021/11/24 02:21:31;;;;;;;0.83;0.83;;;;;;;;;;5008191;28;20228;-79
2021/11/24 02:23:57;;;;;;;0.60;0.60;;;;;;;;;;5021278;28;20436;-79
2021/11/24 02:26:23;;;;;;;0.60;0.60;;;;;;;;;;5024690;28;20457;-80
2021/11/24 02:28:49;;;;;;;0.80;0.80;;;;;;;;;;5028493;28;20221;-80
2021/11/24 02:31:19;;;;;;;1.20;1.20;;;;;;;;;;5026114;28;20205;-81
2021/11/24 02:33:49;;;;;;;1.00;1.00;;;;;;;;;;5025060;28;20250;-80
2021/11/24 02:36:15;;;;;;;0.60;0.60;;;;;;;;;;5026672;28;20205;-80
2021/11/24 02:38:41;;;;;;;1.27;1.17;;;;;;;;;;5030664;28;20179;-79
2021/11/24 02:41:07;;;;;;;0.73;0.73;;;;;;;;;;5027060;28;20434;-81
2021/11/24 02:43:33;;;;;;;1.98;1.88;;;;;;;;;;5027152;28;20461;-80
2021/11/24 02:45:59;;;;;;;1.10;0.90;;;;;;;;;;5026646;28;20217;-80
2021/11/24 02:48:26;;;;;;;1.10;1.10;;;;;;;;;;5026680;28;20463;-79
2021/11/24 02:50:54;;;;;;;1.33;1.23;;;;;;;;;;5025132;28;20440;-80
2021/11/24 02:53:20;;;;;;;0.60;0.60;;;;;;;;;;5026935;28;20175;-81
2021/11/24 02:55:46;;;;;;;2.08;1.98;;;;;;;;;;5026772;28;20237;-79
2021/11/24 02:58:12;;;;;;;2.70;0.97;;;;;;;;;;5009138;28;20187;-80
2021/11/24 03:00:38;;;;;;;1.30;1.02;;;;;;;;;;5027298;28;20436;-81
2021/11/24 03:03:04;;;;;;;0.80;0.80;;;;;;;;;;5025701;28;20668;-80
2021/11/24 03:05:31;;;;;;;1.73;1.73;;;;;;;;;;5026069;28;20458;-80
2021/11/24 03:07:57;;;;;;;0.95;0.95;;;;;;;;;;5025576;28;20434;-79
2021/11/24 03:10:23;;;;;;;1.17;1.17;;;;;;;;;;5031950;28;20194;-79
2021/11/24 03:12:49;;;;;;;1.00;1.00;;;;;;;;;;5025660;28;20820;-78
2021/11/24 03:15:15;;;;;;;0.73;0.73;;;;;;;;;;5026601;28;20973;-80
2021/11/24 03:17:41;;;;;;;2.10;2.00;;;;;;;;;;5025041;28;20430;-81
2021/11/24 03:20:09;;;;;;;0.70;0.70;;;;;;;;;;5026009;28;20457;-80
2021/11/24 03:22:35;;;;;;;1.90;1.80;;;;;;;;;;5026002;28;20437;-80
2021/11/24 03:25:01;;;;;;;1.17;1.08;;;;;;;;;;5026322;28;20305;-79
2021/11/24 03:27:32;;;;;;;2.30;2.20;;;;;;;;;;5025286;28;20228;-81
2021/11/24 03:30:00;;;;;;;1.42;1.33;;;;;;;;;;5024928;28;20214;-80
2021/11/24 03:32:28;;;;;;;0.70;0.70;;;;;;;;;;5018992;28;20260;-79
2021/11/24 03:34:54;;;;;;;2.15;1.95;;;;;;;;;;5025785;28;20210;-80
2021/11/24 03:37:20;;;;;;;1.23;1.23;;;;;;;;;;5025844;28;20178;-78
2021/11/24 03:39:47;;;;;;;0.60;0.60;;;;;;;;;;5031682;28;20566;-80
2021/11/24 03:42:14;;;;;;;1.88;1.00;;;;;;;;;;5025655;28;20187;-80
2021/11/24 03:44:40;;;;;;;2.13;1.60;;;;;;;;;;5025474;28;20770;-81
2021/11/24 03:47:06;;;;;;;1.03;0.93;;;;;;;;;;5024662;28;20190;-80
2021/11/24 03:49:32;;;;;;;1.08;1.08;;;;;;;;;;5026466;28;20438;-80
2021/11/24 03:51:57;;;;;;;1.00;0.97;;;;;;;;;;5014664;28;20193;-80
2021/11/24 03:54:23;;;;;;;1.70;1.23;;;;;;;;;;5032596;28;20793;-81
2021/11/24 03:56:50;;;;;;;1.50;1.43;;;;;;;;;;5027326;28;20858;-81
2021/11/24 03:59:16;;;;;;;1.15;1.15;;;;;;;;;;5022210;28;21007;-80
2021/11/24 04:01:41;;;;;;;3.07;2.87;;;;;;;;;;5023678;28;20183;-79
2021/11/24 04:04:07;;;;;;;2.50;2.30;;;;;;;;;;5023805;28;20845;-79
2021/11/24 04:06:34;;;;;;;7.80;1.37;;;;;;;;;;5021800;28;20414;-79
2021/11/24 04:09:00;;;;;;;1.60;1.55;;;;;;;;;;5030227;28;20416;-81
2021/11/24 04:11:26;;;;;;;0.80;0.80;;;;;;;;;;5022390;28;20229;-79
2021/11/24 04:13:52;;;;;;;0.70;0.70;;;;;;;;;;5024135;28;20186;-81
2021/11/24 04:16:18;;;;;;;1.33;1.23;;;;;;;;;;5022161;28;20254;-80
2021/11/24 04:18:47;;;;;;;1.98;1.88;;;;;;;;;;5024899;28;20163;-80
2021/11/24 04:21:13;;;;;;;4.88;1.98;;;;;;;;;;5026164;28;20290;-80
2021/11/24 04:23:39;;;;;;;1.20;1.20;;;;;;;;;;5024927;28;20190;-79
2021/11/24 04:26:05;;;;;;;1.60;1.60;;;;;;;;;;5023998;28;20465;-80
2021/11/24 04:28:31;;;;;;;1.00;1.00;;;;;;;;;;5025304;28;20282;-80
2021/11/24 04:30:57;;;;;;;0.70;0.70;;;;;;;;;;5008959;28;20191;-81
2021/11/24 04:33:23;;;;;;;1.10;1.10;;;;;;;;;;5030822;28;20401;-78
2021/11/24 04:35:49;;;;;;;1.03;1.03;;;;;;;;;;5038313;28;20245;-79
2021/11/24 04:38:15;;;;;;;0.70;0.70;;;;;;;;;;5031626;28;20444;-81
2021/11/24 04:40:41;;;;;;;0.80;0.80;;;;;;;;;;5011440;28;20213;-81
2021/11/24 04:43:10;;;;;;;1.77;1.67;;;;;;;;;;5027198;28;20175;-81
2021/11/24 04:45:36;;;;;;;0.80;0.80;;;;;;;;;;5028243;28;20197;-78
2021/11/24 04:48:02;;;;;;;0.70;0.70;;;;;;;;;;5009401;28;20191;-81
2021/11/24 04:50:28;;;;;;;4.20;1.60;;;;;;;;;;5028293;28;20213;-78
2021/11/24 04:52:54;;;;;;;4.72;1.10;;;;;;;;;;5027013;28;20197;-79
2021/11/24 04:55:20;;;;;;;0.60;0.60;;;;;;;;;;5027603;28;20207;-80
2021/11/24 04:57:46;;;;;;;1.60;1.57;;;;;;;;;;5026860;28;20417;-81
2021/11/24 05:00:17;;;;;;;2.78;1.13;;;;;;;;;;5009440;28;20944;-80
2021/11/24 05:02:44;;;;;;;0.95;0.95;;;;;;;;;;5029146;28;20175;-81
2021/11/24 05:05:10;;;;;;;0.98;0.98;;;;;;;;;;5028633;28;20258;-79
2021/11/24 05:07:37;;;;;;;2.22;2.03;;;;;;;;;;5025152;28;20193;-79
2021/11/24 05:10:04;;;;;;;1.02;1.02;;;;;;;;;;5009741;28;20198;-79
2021/11/24 05:12:30;;;;;;;1.92;1.45;;;;;;;;;;5037740;28;20170;-76
2021/11/24 05:14:56;;;;;;;3.95;3.22;;;;;;;;;;5037821;28;20210;-82
2021/11/24 05:17:25;;;;;;;0.80;0.80;;;;;;;;;;5038538;28;20631;-77
2021/11/24 05:19:51;;;;;;;0.60;0.60;;;;;;;;;;5032600;28;20234;-79
2021/11/24 05:22:18;;;;;;;1.80;1.70;;;;;;;;;;5031965;28;20197;-80
2021/11/24 05:24:44;;;;;;;1.52;1.42;;;;;;;;;;5033967;28;20232;-81
2021/11/24 05:27:10;;;;;;;1.42;1.10;;;;;;;;;;5029674;28;20183;-80
2021/11/24 05:29:36;;;;;;;0.85;0.80;;;;;;;;;;5030118;28;20183;-82
2021/11/24 05:32:02;;;;;;;1.63;1.52;;;;;;;;;;5032468;28;20179;-79
2021/11/24 05:34:28;;;;;;;0.70;0.70;;;;;;;;;;5036420;28;20195;-78
2021/11/24 05:36:54;;;;;;;0.70;0.70;;;;;;;;;;5033312;28;20210;-82
2021/11/24 05:39:20;;;;;;;0.90;0.90;;;;;;;;;;5030007;28;20423;-79
2021/11/24 05:41:46;;;;;;;1.73;1.67;;;;;;;;;;5020322;28;20210;-79
2021/11/24 05:44:19;;;;;;;0.63;0.63;;;;;;;;;;5020549;28;20430;-78
2021/11/24 05:46:49;;;;;;;0.60;0.60;;;;;;;;;;5001476;28;20869;-79
2021/11/24 05:49:15;;;;;;;0.60;0.60;;;;;;;;;;5019193;28;20229;-79
2021/11/24 05:51:41;;;;;;;0.60;0.60;;;;;;;;;;5018871;28;20217;-79
2021/11/24 05:54:08;;;;;;;3.83;1.50;;;;;;;;;;5020134;28;20261;-79
2021/11/24 05:56:36;;;;;;;1.00;1.00;;;;;;;;;;5019674;28;20736;-79
2021/11/24 05:59:03;;;;;;;4.50;1.27;;;;;;;;;;5020411;28;20634;-78
2021/11/24 06:01:29;;;;;;;2.05;1.70;;;;;;;;;;5019937;28;20206;-78
2021/11/24 06:03:55;;;;;;;0.80;0.80;;;;;;;;;;5018609;28;20646;-79
2021/11/24 06:06:22;;;;;;;0.60;0.60;;;;;;;;;;5019422;28;20218;-79
2021/11/24 06:08:48;;;;;;;0.80;0.80;;;;;;;;;;5013986;28;20214;-79
2021/11/24 06:11:14;;;;;;;0.60;0.60;;;;;;;;;;5018274;28;20748;-79
2021/11/24 06:13:40;;;;;;;4.22;2.05;;;;;;;;;;5019869;28;20182;-79
2021/11/24 06:16:06;;;;;;;1.13;1.13;;;;;;;;;;5019382;28;20593;-78
2021/11/24 06:18:32;;;;;;;0.73;0.73;;;;;;;;;;5001127;28;20250;-79
2021/11/24 06:20:58;;;;;;;1.38;1.27;;;;;;;;;;5019164;28;20429;-79
2021/11/24 06:23:24;;;;;;;0.80;0.80;;;;;;;;;;5019845;28;20233;-79
2021/11/24 06:25:50;;;;;;;1.63;1.53;;;;;;;;;;5019667;28;20458;-78
2021/11/24 06:28:16;;;;;;;0.80;0.80;;;;;;;;;;5019725;28;20429;-79
2021/11/24 06:30:42;;;;;;;0.60;0.60;;;;;;;;;;5020187;28;20178;-79
2021/11/24 06:33:08;;;;;;;6.72;1.25;;;;;;;;;;5018931;28;20179;-78
2021/11/24 06:35:34;;;;;;;0.85;0.85;;;;;;;;;;5017117;28;20690;-78
2021/11/24 06:38:00;;;;;;;0.90;0.90;;;;;;;;;;5016049;28;20186;-78
2021/11/24 06:40:26;;;;;;;1.70;1.23;;;;;;;;;;5022626;28;20406;-78
2021/11/24 06:42:53;;;;;;;1.70;1.60;;;;;;;;;;5017817;28;20171;-78
2021/11/24 06:45:20;;;;;;;0.70;0.70;;;;;;;;;;5017807;28;20218;-78
2021/11/24 06:47:46;;;;;;;4.40;1.92;;;;;;;;;;4999176;28;20229;-78
2021/11/24 06:50:13;;;;;;;0.87;0.80;;;;;;;;;;5017271;28;20182;-78
2021/11/24 06:52:39;;;;;;;1.52;1.05;;;;;;;;;;5016917;28;20414;-78
2021/11/24 06:55:06;;;;;;;2.35;2.13;;;;;;;;;;5016319;28;20202;-78
2021/11/24 06:57:32;;;;;;;1.55;1.02;;;;;;;;;;5014581;28;20537;-78
2021/11/24 06:59:58;;;;;;;0.80;0.80;;;;;;;;;;5016709;28;20709;-78
2021/11/24 07:02:24;;;;;;;0.60;0.60;;;;;;;;;;5017187;28;20179;-78
2021/11/24 07:04:50;;;;;;;3.05;1.73;;;;;;;;;;5016685;28;20791;-77
2021/11/24 07:07:16;;;;;;;1.10;1.10;;;;;;;;;;4998299;28;20207;-78
2021/11/24 07:09:42;;;;;;;1.70;1.60;;;;;;;;;;5028880;28;20904;-78
2021/11/24 07:12:09;;;;;;;0.70;0.70;;;;;;;;;;5017794;28;20508;-78
2021/11/24 07:14:35;;;;;;;0.70;0.70;;;;;;;;;;5015590;28;20195;-77
2021/11/24 07:17:01;;;;;;;0.70;0.70;;;;;;;;;;5015862;28;20219;-79
2021/11/24 07:19:27;;;;;;;6.65;1.95;;;;;;;;;;5016229;28;20216;-78
2021/11/24 07:21:53;;;;;;;1.10;1.00;;;;;;;;;;5017029;28;20183;-78
2021/11/24 07:24:20;;;;;;;1.75;1.65;;;;;;;;;;5022271;28;20281;-78
2021/11/24 07:26:46;;;;;;;1.85;1.77;;;;;;;;;;5021319;28;20183;-78
2021/11/24 07:29:13;;;;;;;2.20;1.02;;;;;;;;;;5026662;28;20198;-78
2021/11/24 07:31:39;;;;;;;1.35;1.35;;;;;;;;;;5027058;28;20205;-77
2021/11/24 07:34:05;;;;;;;0.98;0.98;;;;;;;;;;5017287;28;20179;-78
2021/11/24 07:36:31;;;;;;;0.60;0.60;;;;;;;;;;5017404;28;20217;-78
2021/11/24 07:38:57;;;;;;;0.60;0.60;;;;;;;;;;5023299;28;20443;-78
2021/11/24 07:41:23;;;;;;;1.05;1.05;;;;;;;;;;5000419;28;20426;-78
2021/11/24 07:43:49;;;;;;;1.13;1.02;;;;;;;;;;5016772;28;20521;-78
2021/11/24 07:46:16;;;;;;;1.53;1.27;;;;;;;;;;5014435;28;20194;-78
2021/11/24 07:48:42;;;;;;;1.83;1.73;;;;;;;;;;5018437;28;20426;-78
2021/11/24 07:51:09;;;;;;;1.23;1.13;;;;;;;;;;5017089;28;20174;-78
2021/11/24 07:53:35;;;;;;;0.60;0.60;;;;;;;;;;5019811;28;20309;-78
2021/11/24 07:56:01;;;;;;;0.80;0.80;;;;;;;;;;5016533;28;20297;-78
2021/11/24 07:58:27;;;;;;;1.07;1.07;;;;;;;;;;5016370;28;20223;-78
2021/11/24 08:00:53;;;;;;;0.70;0.70;;;;;;;;;;5017035;28;20406;-78
2021/11/24 08:03:19;;;;;;;0.70;0.70;;;;;;;;;;5018290;28;20514;-78
2021/11/24 08:05:45;;;;;;;0.70;0.70;;;;;;;;;;5016891;28;20804;-78
2021/11/24 08:08:11;;;;;;;1.10;1.10;;;;;;;;;;5015181;28;20222;-78
2021/11/24 08:10:37;;;;;;;0.75;0.75;;;;;;;;;;5017804;28;20418;-78
2021/11/24 08:13:03;;;;;;;0.70;0.70;;;;;;;;;;5017347;28;20175;-78
2021/11/24 08:15:29;;;;;;;1.30;1.20;;;;;;;;;;5017013;28;20209;-78
2021/11/24 08:17:55;;;;;;;1.38;1.27;;;;;;;;;;5017811;28;20178;-78
2021/11/24 08:20:21;;;;;;;1.50;1.50;;;;;;;;;;5017839;28;20170;-78
2021/11/24 08:22:47;;;;;;;1.87;1.37;;;;;;;;;;5017132;28;20215;-78
2021/11/24 08:25:13;;;;;;;2.97;2.10;;;;;;;;;;4998583;28;20475;-77
2021/11/24 08:27:39;;;;;;;0.73;0.73;;;;;;;;;;5012413;28;20414;-78
2021/11/24 08:30:07;;;;;;;1.88;1.77;;;;;;;;;;4994514;28;20943;-77
2021/11/24 08:32:33;;;;;;;1.15;1.05;;;;;;;;;;5012413;28;20186;-77
2021/11/24 08:34:59;;;;;;;0.70;0.70;;;;;;;;;;5012255;28;20634;-77
2021/11/24 08:37:25;;;;;;;1.55;1.45;;;;;;;;;;5013103;28;20202;-78
2021/11/24 08:39:51;;;;;;;0.70;0.70;;;;;;;;;;5012602;28;20233;-79
2021/11/24 08:42:17;;;;;;;5.13;1.73;;;;;;;;;;4994615;28;20186;-78
2021/11/24 08:44:44;;;;;;;0.70;0.70;;;;;;;;;;5011436;28;20426;-78
2021/11/24 08:47:10;;;;;;;0.70;0.70;;;;;;;;;;5011003;28;20179;-78
2021/11/24 08:49:36;;;;;;;0.80;0.80;;;;;;;;;;5012494;28;20193;-78
2021/11/24 08:52:02;;;;;;;1.17;0.98;;;;;;;;;;5012298;28;20179;-78
2021/11/24 08:54:28;;;;;;;0.70;0.70;;;;;;;;;;5011845;28;20281;-77
2021/11/24 08:56:54;;;;;;;2.50;2.30;;;;;;;;;;5011740;28;20289;-78
2021/11/24 08:59:21;;;;;;;1.45;1.15;;;;;;;;;;5012070;28;20167;-79
2021/11/24 09:01:47;;;;;;;1.77;1.65;;;;;;;;;;5012114;28;20175;-78
2021/11/24 09:04:13;;;;;;;2.72;1.60;;;;;;;;;;5012122;28;20226;-78
2021/11/24 09:06:39;;;;;;;1.27;1.10;;;;;;;;;;5011995;28;20539;-78
2021/11/24 09:09:06;;;;;;;1.83;1.08;;;;;;;;;;5011961;28;20902;-78
2021/11/24 09:11:32;;;;;;;0.73;0.70;;;;;;;;;;4994362;28;20182;-78
2021/11/24 09:13:58;;;;;;;0.77;0.77;;;;;;;;;;5011786;28;20179;-77
2021/11/24 09:16:24;;;;;;;3.90;1.45;;;;;;;;;;5011860;28;20207;-78
2021/11/24 09:18:51;;;;;;;0.90;0.90;;;;;;;;;;5011758;28;20175;-78
2021/11/24 09:21:19;;;;;;;1.38;1.27;;;;;;;;;;4996381;28;20182;-78
2021/11/24 09:23:46;;;;;;;1.02;1.00;;;;;;;;;;4997900;28;20171;-78
2021/11/24 09:26:38;;;;;;;0.60;0.60;;;;;;;;;;5015436;28;20716;-77
2021/11/24 09:29:04;;;;;;;0.82;0.82;;;;;;;;;;5015723;28;20163;-78
2021/11/24 09:31:30;;;;;;;0.70;0.70;;;;;;;;;;5015702;28;20182;-78
2021/11/24 09:33:58;;;;;;;0.90;0.90;;;;;;;;;;5015665;28;20179;-78
2021/11/24 09:36:24;;;;;;;1.33;1.23;;;;;;;;;;5017822;28;20457;-76
2021/11/24 09:38:50;;;;;;;0.80;0.80;;;;;;;;;;5014273;28;20598;-78
2021/11/24 09:41:16;;;;;;;1.50;1.40;;;;;;;;;;5014510;28;20175;-78
2021/11/24 09:43:47;;;;;;;0.80;0.80;;;;;;;;;;5015185;28;20225;-78
2021/11/24 09:46:14;;;;;;;3.53;2.38;;;;;;;;;;5014034;28;20849;-78
2021/11/24 09:48:41;;;;;;;0.88;0.88;;;;;;;;;;5015635;28;20185;-78
2021/11/24 09:51:08;;;;;;;2.88;2.65;;;;;;;;;;5016551;28;20556;-78
2021/11/24 09:53:34;;;;;;;3.60;2.65;;;;;;;;;;5016895;28;20182;-78
2021/11/24 09:56:01;;;;;;;1.15;1.15;;;;;;;;;;5016970;28;20212;-78
2021/11/24 09:58:27;;;;;;;1.10;1.10;;;;;;;;;;5017521;28;20171;-78
2021/11/24 10:00:53;;;;;;;0.63;0.63;;;;;;;;;;5017331;28;20645;-78
2021/11/24 10:03:19;;;;;;;1.93;1.47;;;;;;;;;;5017730;28;20410;-78
2021/11/24 10:05:46;;;;;;;1.10;0.80;;;;;;;;;;5018375;28;20973;-78
2021/11/24 10:08:13;;;;;;;5.60;2.38;;;;;;;;;;5017935;28;20254;-77
2021/11/24 10:10:39;;;;;;;0.70;0.70;;;;;;;;;;5017151;28;20549;-78
2021/11/24 10:13:05;;;;;;;0.80;0.80;;;;;;;;;;5020481;28;20248;-78
2021/11/24 10:15:34;;;;;;;1.50;1.48;;;;;;;;;;5019542;28;20245;-78
2021/11/24 10:18:10;;;;;;;3.65;1.65;;;;;;;;;;5032224;28;20210;-77
2021/11/24 10:20:44;;;;;;;0.73;0.73;;;;;;;;;;5033878;28;20704;-79
2021/11/24 10:23:23;;;;;;;1.15;1.05;;;;;;;;;;5027737;28;20230;-77
2021/11/24 10:25:49;;;;;;;6.72;1.52;;;;;;;;;;5027816;28;20206;-77
2021/11/24 10:28:29;;;;;;;1.55;1.13;;;;;;;;;;5024948;28;20260;-78
2021/11/24 10:30:56;;;;;;;2.38;2.17;;;;;;;;;;5019504;28;20538;-78
2021/11/24 10:33:27;;;;;;;0.75;0.75;;;;;;;;;;5018207;28;20662;-77
2021/11/24 10:36:03;;;;;;;0.85;0.85;;;;;;;;;;5017655;28;20238;-77
2021/11/24 10:38:38;;;;;;;0.82;0.82;;;;;;;;;;5018335;28;20174;-78
2021/11/24 10:41:04;;;;;;;2.25;1.50;;;;;;;;;;5018033;28;20159;-78
2021/11/24 10:43:40;;;;;;;2.10;2.00;;;;;;;;;;5018962;28;20171;-78
2021/11/24 10:46:06;;;;;;;0.70;0.70;;;;;;;;;;5017575;28;20195;-78
2021/11/24 10:48:32;;;;;;;1.30;1.30;;;;;;;;;;5019990;28;20170;-78
2021/11/24 10:51:01;;;;;;;1.33;1.23;;;;;;;;;;5020282;28;20278;-78
2021/11/24 10:53:27;;;;;;;1.38;1.27;;;;;;;;;;5027885;28;20525;-77
2021/11/24 10:55:53;;;;;;;0.80;0.80;;;;;;;;;;5027329;28;20211;-77
2021/11/24 10:58:25;;;;;;;2.35;1.25;;;;;;;;;;5026570;28;20175;-78
2021/11/24 11:00:53;;;;;;;0.60;0.60;;;;;;;;;;5023627;28;20201;-78
2021/11/24 11:03:23;;;;;;;1.75;1.40;;;;;;;;;;5023796;28;20202;-78
2021/11/24 11:05:52;;;;;;;2.38;2.22;;;;;;;;;;5023557;28;20195;-78
2021/11/24 11:08:18;;;;;;;7.70;2.42;;;;;;;;;;5024285;28;20194;-78
2021/11/24 11:10:49;;;;;;;0.90;0.90;;;;;;;;;;5024439;28;20187;-78
2021/11/24 11:13:17;;;;;;;2.65;1.80;;;;;;;;;;5023608;28;20175;-78
2021/11/24 11:15:46;;;;;;;3.75;2.90;;;;;;;;;;5005186;28;20199;-77
2021/11/24 11:18:14;;;;;;;0.80;0.80;;;;;;;;;;5022514;28;20175;-78
2021/11/24 11:20:46;;;;;;;1.98;1.88;;;;;;;;;;5022902;28;20190;-78
2021/11/24 11:23:14;;;;;;;0.93;0.82;;;;;;;;;;5022234;28;20232;-78
2021/11/24 11:26:07;;;;;;;1.00;1.00;;;;;;;;;;5017557;28;20305;-78
2021/11/24 11:28:34;;;;;;;0.82;0.82;;;;;;;;;;5013869;28;20210;-78
2021/11/24 11:31:02;;;;;;;0.80;0.80;;;;;;;;;;5017020;28;20183;-77
2021/11/24 11:33:31;;;;;;;1.15;1.05;;;;;;;;;;5017304;28;20257;-77
2021/11/24 11:36:01;;;;;;;2.08;1.98;;;;;;;;;;5017140;28;20206;-77
2021/11/24 11:38:27;;;;;;;1.17;1.13;;;;;;;;;;4999416;28;20182;-78
2021/11/24 11:40:53;;;;;;;1.23;1.10;;;;;;;;;;4995809;28;20187;-77
2021/11/24 11:43:23;;;;;;;0.80;0.80;;;;;;;;;;4996931;28;20203;-78
2021/11/24 11:45:50;;;;;;;2.30;2.10;;;;;;;;;;5002435;28;20215;-77
2021/11/24 11:48:26;;;;;;;0.95;0.90;;;;;;;;;;5016347;28;20576;-78
2021/11/24 11:50:57;;;;;;;0.90;0.90;;;;;;;;;;5015703;28;20205;-79
2021/11/24 11:53:24;;;;;;;0.90;0.90;;;;;;;;;;5017607;28;20699;-77
2021/11/24 11:56:11;;;;;;;0.60;0.60;;;;;;;;;;5011375;28;20606;-77
2021/11/24 11:58:57;;;;;;;1.95;1.85;;;;;;;;;;5017317;28;20167;-77
2021/11/24 12:01:26;;;;;;;1.88;1.13;;;;;;;;;;5004808;28;20176;-79
2021/11/24 12:03:57;;;;;;;0.70;0.70;;;;;;;;;;5004881;28;20717;-79
2021/11/24 12:06:26;;;;;;;0.60;0.60;;;;;;;;;;5001932;28;20191;-78
2021/11/24 12:09:08;;;;;;;1.13;1.13;;;;;;;;;;5013150;28;20186;-78
2021/11/24 12:11:53;;;;;;;0.85;0.82;;;;;;;;;;5029039;28;20277;-78
2021/11/24 12:14:38;;;;;;;0.95;0.95;;;;;;;;;;5014268;28;20207;-78
2021/11/24 12:17:22;;;;;;;0.60;0.60;;;;;;;;;;5014165;28;20234;-78
2021/11/24 12:19:48;;;;;;;0.88;0.88;;;;;;;;;;5009542;28;20182;-77
2021/11/24 12:22:14;;;;;;;1.00;1.00;;;;;;;;;;5016606;28;20670;-78
2021/11/24 12:24:41;;;;;;;1.10;1.00;;;;;;;;;;5018887;28;20454;-77
2021/11/24 12:27:07;;;;;;;0.60;0.60;;;;;;;;;;5012160;28;20425;-78
2021/11/24 12:29:43;;;;;;;0.77;0.77;;;;;;;;;;5010819;28;20191;-78
2021/11/24 12:32:09;;;;;;;0.60;0.60;;;;;;;;;;5017831;28;20890;-78
2021/11/24 12:34:46;;;;;;;0.60;0.60;;;;;;;;;;4999303;28;20202;-78
2021/11/24 12:37:19;;;;;;;0.60;0.60;;;;;;;;;;5018725;28;20202;-79
2021/11/24 12:39:45;;;;;;;0.73;0.73;;;;;;;;;;5019207;28;20588;-78
2021/11/24 12:42:13;;;;;;;1.15;1.05;;;;;;;;;;5000724;28;20670;-78
2021/11/24 12:44:48;;;;;;;2.63;2.53;;;;;;;;;;5014577;28;20244;-78
2021/11/24 12:47:14;;;;;;;1.10;1.10;;;;;;;;;;5014085;28;20506;-78
2021/11/24 12:49:40;;;;;;;1.15;1.05;;;;;;;;;;5014406;28;20185;-78
2021/11/24 12:52:06;;;;;;;0.60;0.60;;;;;;;;;;5015292;28;20179;-78
2021/11/24 12:54:32;;;;;;;0.70;0.70;;;;;;;;;;5014505;28;20203;-79
2021/11/24 12:57:03;;;;;;;0.60;0.60;;;;;;;;;;5015669;28;20519;-78
2021/11/24 12:59:30;;;;;;;0.70;0.70;;;;;;;;;;5015905;28;20432;-78
2021/11/24 13:02:08;;;;;;;0.70;0.70;;;;;;;;;;5015908;28;20643;-78
2021/11/24 13:04:39;;;;;;;0.70;0.70;;;;;;;;;;5017338;28;20194;-78
2021/11/24 13:07:07;;;;;;;0.60;0.60;;;;;;;;;;5017994;28;20182;-79
2021/11/24 13:09:37;;;;;;;0.60;0.60;;;;;;;;;;5018108;28;20186;-79
2021/11/24 13:12:09;;;;;;;0.68;0.68;;;;;;;;;;5017201;28;20190;-79
2021/11/24 13:14:37;;;;;;;0.98;0.88;;;;;;;;;;5017747;28;20194;-79
2021/11/24 13:17:03;;;;;;;0.70;0.70;;;;;;;;;;5017169;28;20199;-78
2021/11/24 13:19:36;;;;;;;0.60;0.60;;;;;;;;;;5015504;28;20182;-78
2021/11/24 13:22:02;;;;;;;0.85;0.85;;;;;;;;;;5015500;28;20175;-79
2021/11/24 13:24:28;;;;;;;0.60;0.60;;;;;;;;;;4998842;28;20222;-78
2021/11/24 13:26:55;;;;;;;0.60;0.60;;;;;;;;;;5001277;28;20230;-78
2021/11/24 13:29:24;;;;;;;1.23;1.17;;;;;;;;;;5014106;28;20183;-78
2021/11/24 13:31:51;;;;;;;0.70;0.70;;;;;;;;;;5012651;28;20596;-78
2021/11/24 13:34:24;;;;;;;1.05;1.02;;;;;;;;;;5016454;28;20299;-78
2021/11/24 13:36:50;;;;;;;1.00;1.00;;;;;;;;;;4998165;28;20202;-80
2021/11/24 13:39:16;;;;;;;0.60;0.60;;;;;;;;;;5018935;28;20169;-79
2021/11/24 13:41:42;;;;;;;0.70;0.70;;;;;;;;;;5022095;28;20171;-78
2021/11/24 13:44:08;;;;;;;0.60;0.60;;;;;;;;;;5019207;28;20407;-79
2021/11/24 13:46:47;;;;;;;0.60;0.60;;;;;;;;;;5017769;28;20422;-78
2021/11/24 13:49:17;;;;;;;0.60;0.60;;;;;;;;;;5017107;28;20197;-78
2021/11/24 13:51:45;;;;;;;0.60;0.60;;;;;;;;;;5017151;28;20156;-79
2021/11/24 13:54:12;;;;;;;0.60;0.60;;;;;;;;;;5016929;28;20209;-78
2021/11/24 13:56:48;;;;;;;0.70;0.70;;;;;;;;;;5016656;28;20281;-79
2021/11/24 13:59:16;;;;;;;0.60;0.60;;;;;;;;;;5017105;28;20171;-78
2021/11/24 14:01:48;;;;;;;0.60;0.60;;;;;;;;;;5016775;28;20164;-78
2021/11/24 14:04:19;;;;;;;0.60;0.60;;;;;;;;;;5016780;28;20565;-78
2021/11/24 14:06:46;;;;;;;1.05;1.02;;;;;;;;;;5014998;28;20211;-78
2021/11/24 14:09:21;;;;;;;0.70;0.70;;;;;;;;;;5015813;28;20179;-78
2021/11/24 14:11:59;;;;;;;0.68;0.68;;;;;;;;;;5016622;28;20544;-78
2021/11/24 14:14:26;;;;;;;0.88;0.88;;;;;;;;;;5015517;28;20195;-78
2021/11/24 14:17:02;;;;;;;0.70;0.70;;;;;;;;;;5018587;28;20201;-77
2021/11/24 14:19:34;;;;;;;0.85;0.85;;;;;;;;;;5021486;28;20540;-78
2021/11/24 14:22:02;;;;;;;0.60;0.60;;;;;;;;;;5020385;28;20237;-78
2021/11/24 14:24:28;;;;;;;0.60;0.60;;;;;;;;;;5015741;28;20207;-78
2021/11/24 14:26:54;;;;;;;0.90;0.90;;;;;;;;;;5021084;22;20228;-76
2021/11/24 14:29:21;;;;;;;0.70;0.70;;;;;;;;;;5008156;28;20180;-75
2021/11/24 14:31:53;;;;;;;0.68;0.68;;;;;;;;;;4992571;28;20176;-76
2021/11/24 14:34:19;;;;;;;0.60;0.60;;;;;;;;;;4993837;28;20168;-76
2021/11/24 14:36:45;;;;;;;1.65;1.55;;;;;;;;;;4993288;28;20632;-76
2021/11/24 14:39:11;;;;;;;0.60;0.60;;;;;;;;;;4993848;28;20254;-75
2021/11/24 14:41:37;;;;;;;0.60;0.60;;;;;;;;;;4993058;28;20426;-75
2021/11/24 14:44:03;;;;;;;0.73;0.73;;;;;;;;;;4994143;28;20895;-76